Time;durP1;ratioP1;P1;durP2;ratioP2;P2;SDS_P1;SDS_P2;PMS_P1;PMS_P2;Temp;Humidity;BMP_temperature;BMP_pressure;BME280_temperature;BME280_humidity;BME280_pressure;Samples;Min_cycle;Max_cycle;Signal;HPM_P1;HPM_P2
2022/05/06 19:42:55;;;;;;;;;;;;;;;;;;;;;
2022/05/06 19:45:47;;;;;;;17.10;9.40;;;;;;;11.86;51.33;99693.81;107148;1264;22562;-86
2022/05/06 19:48:15;;;;;;;17.40;8.80;;;;;;;11.83;51.44;99690.79;103205;1265;5454329;-88
2022/05/06 19:50:56;;;;;;;19.70;9.40;;;;;;;11.81;51.52;99691.64;107483;1265;22479;-87
2022/05/06 19:53:47;;;;;;;21.00;9.90;;;;;;;11.83;51.59;99696.50;107655;1263;22605;-84
2022/05/06 19:56:52;;;;;;;38.00;15.40;;;;;;;11.89;51.66;99697.67;107073;1264;22721;-84
2022/05/06 19:59:32;;;;;;;44.20;19.40;;;;;;;11.88;51.76;99701.16;107040;1265;24199;-84
2022/05/06 20:02:51;;;;;;;33.50;16.00;;;;;;;11.77;51.93;99700.83;107144;1265;23017;-86
2022/05/06 20:05:22;;;;;;;46.50;20.60;;;;;;;11.64;52.16;99695.96;106708;1265;25236;-89
2022/05/06 20:08:02;;;;;;;46.40;20.70;;;;;;;11.51;52.28;99701.78;106919;1265;22543;-85
2022/05/06 20:10:29;;;;;;;38.30;17.20;;;;;;;11.43;52.28;99703.08;106895;1263;22674;-85
2022/05/06 20:13:26;;;;;;;30.00;15.40;;;;;;;11.36;52.52;99700.29;106766;1264;24263;-85
2022/05/06 20:16:14;;;;;;;33.30;16.00;;;;;;;11.29;52.76;99701.46;106797;1264;22561;-85
2022/05/06 20:19:03;;;;;;;36.40;16.60;;;;;;;11.23;52.60;99699.88;106828;1263;22714;-87
2022/05/06 20:21:34;;;;;;;30.10;15.20;;;;;;;11.16;52.97;99698.96;106811;1263;22857;-85
2022/05/06 20:24:12;;;;;;;26.50;13.80;;;;;;;11.12;52.88;99699.35;106769;1264;22836;-86
2022/05/06 20:26:45;;;;;;;23.50;12.10;;;;;;;11.11;53.04;99696.91;106782;1263;22995;-85
2022/05/06 20:29:14;;;;;;;20.80;11.40;;;;;;;11.10;53.32;99699.28;106656;1264;22560;-85
2022/05/06 20:31:53;;;;;;;17.90;10.10;;;;;;;11.06;53.31;99695.48;106794;1263;22553;-85
2022/05/06 20:34:20;;;;;;;17.70;9.70;;;;;;;10.99;53.47;99695.70;106786;1264;22559;-86
2022/05/06 20:36:59;;;;;;;53.20;17.90;;;;;;;10.98;53.58;99696.66;106810;1263;22528;-85
2022/05/06 20:39:27;;;;;;;28.10;12.50;;;;;;;11.00;53.54;99695.84;106847;1263;23102;-87
2022/05/06 20:41:57;;;;;;;25.40;12.40;;;;;;;10.97;53.85;99697.80;106871;1264;22574;-83
2022/05/06 20:44:29;;;;;;;112.80;28.50;;;;;;;10.87;53.81;99699.71;106762;1264;24265;-86
2022/05/06 20:47:06;;;;;;;24.00;11.60;;;;;;;10.78;54.10;99697.44;107029;1264;24699;-87
2022/05/06 20:49:33;;;;;;;26.50;11.20;;;;;;;10.71;54.10;99700.73;106873;1264;22718;-85
2022/05/06 20:51:59;;;;;;;17.60;9.60;;;;;;;10.66;54.14;99699.08;106990;1264;22579;-88
2022/05/06 20:54:28;;;;;;;25.10;10.80;;;;;;;10.62;54.25;99701.65;106801;1264;25343;-84
2022/05/06 20:59:42;;;;;;;30.70;13.50;;;;;;;10.60;54.38;99700.84;106832;1264;22529;-84
2022/05/06 21:02:12;;;;;;;29.60;13.20;;;;;;;10.54;54.41;99699.99;106795;1264;24045;-85
2022/05/06 21:04:47;;;;;;;32.80;13.90;;;;;;;10.46;54.48;99701.71;107287;1264;24068;-86
2022/05/06 21:07:23;;;;;;;26.10;12.90;;;;;;;10.44;54.45;99703.11;106814;1264;22540;-89
2022/05/06 21:15:52;;;;;;;32.90;15.20;;;;;;;10.34;54.99;99706.91;106826;1264;24257;-89
2022/05/06 21:18:32;;;;;;;102.30;27.30;;;;;;;10.27;55.15;99708.77;106844;1264;25303;-84
2022/05/06 21:21:12;;;;;;;51.70;18.90;;;;;;;10.21;55.38;99707.69;106911;1264;24269;-85
2022/05/06 21:23:38;;;;;;;54.20;19.90;;;;;;;10.17;55.55;99707.75;106556;1265;22562;-89
2022/05/06 21:26:26;;;;;;;24.20;11.70;;;;;;;10.12;55.50;99708.07;106697;1264;22689;-86
2022/05/06 21:29:13;;;;;;;21.00;11.20;;;;;;;10.05;55.54;99709.88;106835;1265;22806;-86
2022/05/06 21:31:40;;;;;;;24.80;11.10;;;;;;;10.01;55.68;99713.31;106832;1264;24465;-86
2022/05/06 21:34:27;;;;;;;28.00;11.30;;;;;;;10.04;55.68;99717.59;106904;1264;25229;-85
2022/05/06 21:37:05;;;;;;;26.20;11.30;;;;;;;10.05;55.74;99716.98;106992;1264;25497;-85
2022/05/06 21:39:34;;;;;;;89.60;25.00;;;;;;;10.00;55.79;99721.16;107690;1254;22604;-85
2022/05/06 21:42:05;;;;;;;35.80;14.90;;;;;;;9.92;55.89;99723.41;107568;1255;23298;-84
2022/05/06 21:44:32;;;;;;;39.10;15.30;;;;;;;9.89;55.98;99725.23;107344;1255;22688;-85
2022/05/06 21:47:01;;;;;;;48.10;17.90;;;;;;;9.85;56.17;99724.02;107564;1254;22560;-87
2022/05/06 21:49:50;;;;;;;55.60;19.70;;;;;;;9.79;56.43;99726.01;107852;1254;22640;-84
2022/05/06 21:52:20;;;;;;;36.10;14.20;;;;;;;9.71;56.44;99728.41;107799;1254;22525;-86
2022/05/06 21:54:49;;;;;;;23.70;11.10;;;;;;;9.65;56.52;99725.04;107703;1254;24250;-85
2022/05/06 21:57:21;;;;;;;20.10;10.00;;;;;;;9.67;56.72;99724.20;107897;1253;24329;-88
2022/05/06 21:59:48;;;;;;;16.50;8.20;;;;;;;9.63;56.83;99721.06;107355;1257;22540;-88
2022/05/06 22:02:15;;;;;;;19.60;8.70;;;;;;;9.56;57.04;99720.39;107548;1254;25311;-84
2022/05/06 22:04:42;;;;;;;20.40;10.30;;;;;;;9.53;57.04;99715.40;107336;1255;22796;-85
2022/05/06 22:07:17;;;;;;;29.50;12.40;;;;;;;9.52;56.92;99717.09;107715;1254;22676;-85
2022/05/06 22:09:45;;;;;;;27.80;12.10;;;;;;;9.47;56.77;99716.27;107825;1254;24098;-85
2022/05/06 22:12:12;;;;;;;21.90;11.70;;;;;;;9.42;56.84;99714.95;107856;1254;22678;-85
2022/05/06 22:15:12;;;;;;;;;;;;;;;;;;;;;
2022/05/06 22:17:41;;;;;;;30.20;13.10;;;;;;;9.31;57.16;99708.83;107897;1254;25376;-86
2022/05/06 22:20:19;;;;;;;45.90;16.20;;;;;;;9.27;57.29;99705.14;107455;1255;25407;-85
2022/05/06 22:22:49;;;;;;;52.50;18.00;;;;;;;9.24;57.49;99705.35;107735;1254;22727;-85
2022/05/06 22:25:19;;;;;;;88.00;28.50;;;;;;;9.21;57.82;99702.98;107796;1254;24275;-86
2022/05/06 22:27:46;;;;;;;64.00;20.10;;;;;;;9.27;57.77;99704.48;107539;1254;25298;-85
2022/05/06 22:30:28;;;;;;;61.10;19.90;;;;;;;9.29;57.76;99700.08;107512;1255;25305;-86
2022/05/06 22:35:53;;;;;;;39.20;15.80;;;;;;;9.20;57.78;99697.56;107613;1254;25342;-86
2022/05/06 22:38:23;;;;;;;32.80;13.90;;;;;;;9.15;57.68;99694.80;107824;1254;25373;-86
2022/05/06 22:47:12;;;;;;;39.90;13.80;;;;;;;9.20;58.20;99696.14;107763;1254;23407;-85
2022/05/06 22:49:42;;;;;;;38.10;13.50;;;;;;;9.14;58.15;99692.04;107835;1254;22550;-85
2022/05/06 22:52:11;;;;;;;32.70;14.30;;;;;;;9.07;58.46;99691.20;107360;1254;22537;-87
2022/05/06 22:54:44;;;;;;;34.80;15.10;;;;;;;9.00;58.56;99692.66;107577;1254;24250;-88
2022/05/06 22:57:43;;;;;;;80.30;29.40;;;;;;;8.96;58.77;99690.02;107471;1254;24224;-87
2022/05/06 23:00:56;;;;;;;40.90;17.20;;;;;;;8.98;59.01;99694.76;107225;1257;22737;-86
2022/05/06 23:03:46;;;;;;;32.20;14.40;;;;;;;8.91;58.88;99693.30;107867;1253;24221;-85
2022/05/06 23:06:47;;;;;;;29.30;12.80;;;;;;;8.88;58.87;99693.31;107500;1255;22540;-87
2022/05/06 23:13:09;;;;;;;84.90;25.70;;;;;;;8.82;59.21;99691.69;107213;1260;22962;-88
2022/05/06 23:15:48;;;;;;;76.90;23.20;;;;;;;8.82;59.41;99688.66;107424;1257;22528;-87
2022/05/06 23:18:27;;;;;;;35.20;14.70;;;;;;;8.84;59.23;99686.58;107228;1257;25411;-86
2022/05/06 23:21:25;;;;;;;35.10;15.10;;;;;;;8.85;59.12;99686.70;107408;1257;22524;-85
2022/05/06 23:24:42;;;;;;;;;;;;;;;;;;;;;
2022/05/06 23:27:42;;;;;;;30.50;13.40;;;;;;;8.68;59.14;99685.88;107314;1257;22767;-86
2022/05/06 23:30:11;;;;;;;28.60;13.20;;;;;;;8.65;59.23;99684.23;107364;1257;22666;-87
2022/05/06 23:33:42;;;;;;;33.80;14.20;;;;;;;8.68;59.38;99685.50;107401;1257;22533;-86
2022/05/06 23:40:27;;;;;;;31.00;13.40;;;;;;;8.72;59.36;99681.04;106817;1263;22817;-83
2022/05/06 23:43:23;;;;;;;;;;;;;;;;;;;;;
2022/05/06 23:45:55;;;;;;;35.80;15.10;;;;;;;8.44;59.79;99679.39;107223;1259;25401;-86
2022/05/06 23:48:53;;;;;;;45.20;16.70;;;;;;;8.41;59.79;99673.33;107145;1260;22588;-87
2022/05/06 23:51:29;;;;;;;37.50;13.80;;;;;;;8.41;59.63;99672.45;107120;1259;22524;-83
2022/05/06 23:53:56;;;;;;;30.80;13.40;;;;;;;8.41;59.86;99671.17;107266;1258;24245;-89
2022/05/06 23:56:28;;;;;;;28.90;13.70;;;;;;;8.45;60.07;99669.04;106990;1262;24710;-86
2022/05/06 23:58:56;;;;;;;28.80;12.80;;;;;;;8.46;59.91;99668.27;107089;1259;22843;-85
